createdAt,value
2022-10-27T00:04:39.909Z,11.3
2022-10-27T00:24:44.291Z,11.3
2022-10-27T00:34:46.573Z,11.4
2022-10-27T00:54:50.113Z,11.3
2022-10-27T01:04:52.000Z,11.1
2022-10-27T01:34:58.404Z,10.8
2022-10-27T01:45:00.315Z,10.8
2022-10-27T01:55:02.366Z,10.6
2022-10-27T02:05:04.939Z,10.6
2022-10-27T02:15:06.699Z,10.5
2022-10-27T02:25:08.683Z,10.6
2022-10-27T02:45:13.592Z,11
2022-10-27T02:55:15.836Z,10.7
2022-10-27T03:15:20.278Z,10.5
2022-10-27T03:25:22.315Z,10.3
2022-10-27T03:45:26.266Z,10.2
2022-10-27T03:55:27.980Z,10.1
2022-10-27T04:15:33.178Z,10
2022-10-27T04:35:37.767Z,10
2022-10-27T05:05:43.602Z,10
2022-10-27T05:15:45.895Z,9.9
2022-10-27T05:35:50.816Z,9.9
2022-10-27T05:55:54.474Z,10
2022-10-27T06:05:56.414Z,9.8
2022-10-27T06:26:01.114Z,9.8
2022-10-27T06:36:03.682Z,10.1
2022-10-27T06:46:06.055Z,9.9
2022-10-27T06:56:08.649Z,10.1
2022-10-27T07:06:10.493Z,10.4
2022-10-27T07:16:12.220Z,10.6
2022-10-27T07:26:58.173Z,10.8
2022-10-27T07:36:24.085Z,12.1
2022-10-27T07:56:28.773Z,13.3
2022-10-27T08:06:30.727Z,13.9
2022-10-27T08:26:35.879Z,15.5
2022-10-27T08:36:38.338Z,16.3
2022-10-27T08:46:40.850Z,16.5
2022-10-27T08:56:42.761Z,17.5
2022-10-27T09:06:44.645Z,18.5
2022-10-27T09:16:46.863Z,18.7
2022-10-27T09:36:50.692Z,19.7
2022-10-27T09:46:52.459Z,19.5
2022-10-27T09:56:54.249Z,20
2022-10-27T10:06:56.873Z,20.8
2022-10-27T10:37:02.683Z,21.3
2022-10-27T10:47:04.359Z,21.5
2022-10-27T10:57:06.247Z,21.3
2022-10-27T11:17:10.371Z,21.7
2022-10-27T11:27:12.621Z,21.9
2022-10-27T11:37:21.443Z,21.8
2022-10-27T11:47:24.506Z,22
2022-10-27T11:57:35.349Z,22
2022-10-27T12:27:33.052Z,21.9
2022-10-27T12:47:37.491Z,22.2
2022-10-27T12:57:40.113Z,22.2
2022-10-27T13:07:42.043Z,22.3
2022-10-27T13:17:43.945Z,22.3
2022-10-27T13:27:46.067Z,22.1
2022-10-27T13:37:48.340Z,21.9
2022-10-27T13:47:50.477Z,22
2022-10-27T14:07:54.585Z,21.9
2022-10-27T14:17:56.810Z,22
2022-10-27T14:27:59.489Z,21.9
2022-10-27T14:38:01.122Z,21.8
2022-10-27T14:48:03.121Z,21.6
2022-10-27T14:58:04.990Z,21.4
2022-10-27T15:08:06.780Z,21.3
2022-10-27T15:18:08.480Z,21.1
2022-10-27T15:28:10.781Z,20.8
2022-10-27T15:48:15.548Z,20.6
2022-10-27T15:58:17.797Z,20.5
2022-10-27T16:08:19.497Z,20.4
2022-10-27T16:18:21.904Z,20.2
2022-10-27T16:28:23.874Z,19.9
2022-10-27T16:38:26.080Z,20.1
2022-10-27T16:48:28.154Z,20.1
2022-10-27T16:58:30.371Z,20.1
2022-10-27T17:08:32.526Z,20.2
2022-10-27T17:18:34.415Z,20.1
2022-10-27T17:28:36.195Z,20.1
2022-10-27T17:38:38.755Z,20.1
2022-10-27T17:58:42.749Z,20.1
2022-10-27T18:08:44.894Z,20.2
2022-10-27T18:18:47.010Z,20.2
2022-10-27T18:38:50.978Z,20.2
2022-10-27T18:58:55.989Z,19.8
2022-10-27T19:08:58.497Z,19.7
2022-10-27T19:19:00.960Z,19.5
2022-10-27T19:29:03.337Z,19.3
2022-10-27T19:49:07.649Z,18.7
2022-10-27T20:09:11.513Z,18.1
2022-10-27T20:19:13.822Z,17.7
2022-10-27T20:29:16.105Z,17.5
2022-10-27T20:39:18.761Z,16.9
2022-10-27T20:59:23.933Z,17
2022-10-27T21:09:24.832Z,17.3
2022-10-27T21:19:27.142Z,17.3
2022-10-27T21:29:29.213Z,17.1
2022-10-27T22:19:38.463Z,17.3
2022-10-27T23:09:49.270Z,18.3
2022-10-27T23:19:51.914Z,18.2
2022-10-27T23:49:58.320Z,18
